Terminal Aerodrome Forecast
Issued by NWS New Orleans/Baton Rouge, LA

Home | Current Version | Previous Version | Text Only | Print | Product List | Glossary On
Versions: 1 2 3 4 5 6 7 8 9 10 11 12 13 14 15 16 17 18 19 20 21 22 23 24
000
FTUS44 KLIX 030300 AAA
TAFNEW
TAF AMD
KNEW 030302Z 0303/0324 17003KT P6SM BKN090
      TEMPO 0303/0304 35020G35KT 1SM +TSRA BKN025CB OVC050
     FM030400 VRB03KT P6SM -RA OVC100
     FM030600 07005KT P6SM BKN110
     FM032200 13005KT P6SM VCTS BKN040CB=

USA.gov is the U.S. government's official web portal to all federal, state and local government web resources and services.